createdAt,value
2022-10-28T00:00:32.680Z,3.75
2022-10-28T00:03:18.790Z,4.15
2022-10-28T00:06:09.493Z,4.63
2022-10-28T00:08:54.843Z,4.38
2022-10-28T00:11:40.314Z,4.20
2022-10-28T00:14:25.534Z,4.28
2022-10-28T00:17:10.789Z,3.90
2022-10-28T00:19:56.147Z,4.00
2022-10-28T00:22:42.984Z,3.90
2022-10-28T00:25:28.595Z,3.72
2022-10-28T00:28:14.216Z,3.80
2022-10-28T00:31:07.079Z,4.18
2022-10-28T00:33:53.207Z,3.58
2022-10-28T00:36:40.795Z,3.72
2022-10-28T00:39:27.547Z,3.83
2022-10-28T00:42:20.956Z,3.90
2022-10-28T00:45:07.447Z,4.70
2022-10-28T00:47:59.077Z,4.38
2022-10-28T00:50:51.950Z,4.03
2022-10-28T00:53:39.897Z,3.38
2022-10-28T00:56:30.538Z,3.33
2022-10-28T00:59:27.056Z,3.30
2022-10-28T01:02:12.845Z,3.10
2022-10-28T01:04:59.095Z,3.50
2022-10-28T01:07:45.398Z,3.55
2022-10-28T01:11:04.148Z,4.10
2022-10-28T01:14:43.622Z,4.53
2022-10-28T01:18:04.528Z,3.63
2022-10-28T01:21:09.049Z,3.55
2022-10-28T01:24:19.386Z,3.77
2022-10-28T01:27:26.905Z,3.90
2022-10-28T01:30:16.761Z,4.57
2022-10-28T01:33:29.669Z,3.20
2022-10-28T01:36:36.735Z,3.25
2022-10-28T01:39:29.762Z,3.15
2022-10-28T01:42:33.817Z,3.28
2022-10-28T01:45:26.761Z,3.40
2022-10-28T01:48:23.809Z,3.40
2022-10-28T01:51:30.722Z,3.33
2022-10-28T01:54:19.698Z,3.50
2022-10-28T01:57:05.932Z,3.63
2022-10-28T01:59:52.299Z,3.60
2022-10-28T02:02:39.066Z,3.67
2022-10-28T02:05:49.195Z,3.67
2022-10-28T02:08:56.427Z,3.13
2022-10-28T02:12:09.847Z,3.13
2022-10-28T02:15:16.876Z,3.33
2022-10-28T02:18:22.518Z,3.70
2022-10-28T02:21:30.283Z,3.28
2022-10-28T02:24:32.898Z,3.22
2022-10-28T02:27:36.007Z,3.28
2022-10-28T02:30:25.504Z,3.33
2022-10-28T02:33:15.079Z,2.90
2022-10-28T02:45:21.185Z,3.30
2022-10-28T02:48:19.513Z,3.08
2022-10-28T02:51:24.976Z,3.80
2022-10-28T02:57:17.872Z,3.17
2022-10-28T03:00:10.586Z,3.30
2022-10-28T03:02:55.946Z,3.67
2022-10-28T03:05:41.218Z,3.90
2022-10-28T03:08:26.714Z,3.47
2022-10-28T03:11:12.181Z,3.50
2022-10-28T03:13:57.842Z,3.22
2022-10-28T03:16:43.312Z,3.13
2022-10-28T03:19:28.618Z,3.05
2022-10-28T03:22:14.242Z,3.88
2022-10-28T03:24:59.524Z,3.63
2022-10-28T03:27:45.108Z,3.25
2022-10-28T03:30:30.493Z,3.83
2022-10-28T03:33:15.958Z,3.20
2022-10-28T03:36:01.706Z,2.80
2022-10-28T03:38:47.135Z,3.08
2022-10-28T03:41:32.673Z,3.00
2022-10-28T03:44:17.999Z,3.30
2022-10-28T03:47:03.753Z,2.85
2022-10-28T03:49:48.992Z,3.22
2022-10-28T03:52:34.625Z,3.13
2022-10-28T03:55:20.138Z,3.22
2022-10-28T03:58:05.733Z,3.00
2022-10-28T04:00:52.105Z,3.20
2022-10-28T04:03:37.232Z,3.33
2022-10-28T04:06:22.863Z,3.20
2022-10-28T04:09:08.305Z,4.72
2022-10-28T04:11:53.645Z,3.10
2022-10-28T04:14:38.893Z,3.25
2022-10-28T04:17:24.405Z,3.08
2022-10-28T04:20:10.185Z,3.10
2022-10-28T04:22:57.222Z,3.10
2022-10-28T04:25:43.091Z,3.15
2022-10-28T04:28:28.392Z,3.10
2022-10-28T04:31:13.942Z,3.47
2022-10-28T04:33:59.552Z,2.83
2022-10-28T04:36:45.289Z,2.90
2022-10-28T04:39:30.746Z,3.20
2022-10-28T04:42:16.505Z,2.97
2022-10-28T04:45:01.868Z,3.25
2022-10-28T04:47:47.237Z,3.15
2022-10-28T04:50:32.847Z,3.85
2022-10-28T04:53:18.143Z,2.75
2022-10-28T04:56:03.833Z,3.85
2022-10-28T04:58:49.189Z,3.88
2022-10-28T05:01:34.472Z,2.80
2022-10-28T05:04:20.105Z,3.20
2022-10-28T05:07:05.453Z,3.10
2022-10-28T05:09:50.803Z,2.83
2022-10-28T05:12:36.291Z,2.67
2022-10-28T05:15:21.922Z,3.03
2022-10-28T05:18:07.582Z,3.08
2022-10-28T05:20:54.984Z,3.17
2022-10-28T05:23:40.788Z,2.95
2022-10-28T05:26:26.031Z,2.85
2022-10-28T05:29:11.620Z,3.03
2022-10-28T05:31:57.309Z,2.83
2022-10-28T05:34:42.689Z,3.03
2022-10-28T05:37:28.291Z,2.90
2022-10-28T05:40:13.883Z,2.72
2022-10-28T05:43:00.429Z,3.40
2022-10-28T05:45:52.975Z,2.65
2022-10-28T05:48:38.281Z,2.92
2022-10-28T05:51:23.562Z,4.28
2022-10-28T05:54:09.269Z,3.00
2022-10-28T05:56:54.697Z,3.50
2022-10-28T05:59:40.269Z,3.33
2022-10-28T06:02:25.821Z,4.05
2022-10-28T06:05:12.331Z,3.03
2022-10-28T06:07:58.022Z,3.50
2022-10-28T06:10:49.941Z,2.90
2022-10-28T06:13:35.345Z,3.13
2022-10-28T06:16:21.112Z,2.97
2022-10-28T06:19:06.417Z,2.85
2022-10-28T06:21:51.947Z,3.33
2022-10-28T06:24:37.249Z,3.70
2022-10-28T06:27:22.996Z,2.95
2022-10-28T06:30:09.001Z,2.88
2022-10-28T06:32:57.752Z,3.40
2022-10-28T06:35:43.266Z,3.30
2022-10-28T06:38:28.912Z,3.50
2022-10-28T06:41:14.432Z,3.35
2022-10-28T06:44:00.185Z,3.80
2022-10-28T06:46:47.049Z,3.05
2022-10-28T06:49:32.807Z,3.25
2022-10-28T06:52:18.063Z,3.40
2022-10-28T06:55:03.489Z,3.63
2022-10-28T06:57:48.702Z,3.30
2022-10-28T07:00:34.744Z,3.20
2022-10-28T07:03:22.783Z,3.67
2022-10-28T07:06:08.149Z,3.58
2022-10-28T07:08:53.765Z,3.40
2022-10-28T07:11:39.369Z,3.60
2022-10-28T07:14:25.134Z,3.95
2022-10-28T07:17:10.413Z,2.97
2022-10-28T07:19:55.980Z,3.17
2022-10-28T07:22:41.349Z,3.20
2022-10-28T07:25:28.360Z,3.58
2022-10-28T07:28:13.547Z,3.40
2022-10-28T07:31:02.737Z,3.50
2022-10-28T07:33:52.987Z,4.47
2022-10-28T07:36:38.598Z,3.50
2022-10-28T07:39:24.172Z,3.60
2022-10-28T07:42:09.540Z,3.60
2022-10-28T07:44:54.734Z,4.07
2022-10-28T07:47:40.864Z,3.75
2022-10-28T07:50:26.559Z,3.90
2022-10-28T07:53:11.774Z,3.60
2022-10-28T07:55:59.549Z,3.53
2022-10-28T07:58:45.562Z,3.35
2022-10-28T08:01:32.212Z,3.58
2022-10-28T08:04:17.764Z,3.75
2022-10-28T08:07:03.303Z,3.47
2022-10-28T08:09:48.812Z,3.22
2022-10-28T08:12:34.187Z,3.20
2022-10-28T08:15:22.181Z,3.53
2022-10-28T08:18:07.479Z,3.38
2022-10-28T08:20:52.998Z,3.53
2022-10-28T08:23:38.716Z,3.40
2022-10-28T08:26:24.577Z,3.38
2022-10-28T08:29:12.174Z,3.13
2022-10-28T08:31:57.989Z,3.78
2022-10-28T08:34:46.457Z,3.67
2022-10-28T08:37:31.979Z,3.60
2022-10-28T08:40:18.252Z,3.42
2022-10-28T08:43:34.906Z,3.03
2022-10-28T08:46:28.696Z,3.30
2022-10-28T08:49:19.631Z,3.47
2022-10-28T08:52:43.896Z,3.25
2022-10-28T08:55:39.911Z,2.95
2022-10-28T08:58:28.793Z,3.63
2022-10-28T09:01:21.341Z,3.75
2022-10-28T09:04:17.099Z,3.00
2022-10-28T09:07:04.054Z,3.10
2022-10-28T09:09:51.514Z,3.25
2022-10-28T09:12:53.740Z,3.53
2022-10-28T09:16:00.494Z,6.78
2022-10-28T09:18:53.308Z,2.70
2022-10-28T09:21:48.888Z,2.45
2022-10-28T09:24:59.634Z,2.63
2022-10-28T09:28:06.439Z,2.05
2022-10-28T09:31:00.566Z,2.40
2022-10-28T09:34:10.765Z,2.17
2022-10-28T09:37:09.818Z,1.80
2022-10-28T09:40:00.313Z,2.30
2022-10-28T09:43:28.186Z,2.38
2022-10-28T09:46:16.479Z,4.60
2022-10-28T09:49:11.745Z,2.80
2022-10-28T09:52:13.889Z,2.42
2022-10-28T09:55:08.876Z,2.73
2022-10-28T09:57:54.726Z,2.15
2022-10-28T10:00:43.105Z,2.90
2022-10-28T10:03:28.522Z,2.97
2022-10-28T10:06:20.722Z,2.80
2022-10-28T10:09:06.174Z,2.78
2022-10-28T10:11:55.285Z,3.72
2022-10-28T10:14:53.840Z,2.05
2022-10-28T10:17:56.975Z,2.60
2022-10-28T10:20:57.883Z,2.53
2022-10-28T10:23:51.872Z,2.83
2022-10-28T10:30:15.758Z,2.28
2022-10-28T10:33:04.971Z,3.10
2022-10-28T10:36:00.111Z,3.25
2022-10-28T10:38:52.534Z,2.72
2022-10-28T10:41:39.402Z,2.53
2022-10-28T10:44:31.872Z,2.72
2022-10-28T10:47:20.428Z,2.22
2022-10-28T10:50:29.434Z,2.58
2022-10-28T10:53:32.132Z,2.70
2022-10-28T10:56:30.302Z,2.40
2022-10-28T10:59:31.018Z,2.30
2022-10-28T11:02:39.850Z,2.22
2022-10-28T11:05:29.195Z,2.05
2022-10-28T11:08:36.165Z,2.10
2022-10-28T11:11:33.963Z,2.40
2022-10-28T11:14:33.050Z,2.20
2022-10-28T11:17:37.668Z,2.20
2022-10-28T11:20:26.491Z,2.13
2022-10-28T11:23:26.142Z,3.00
2022-10-28T11:26:15.527Z,2.38
2022-10-28T11:29:11.621Z,1.92
2022-10-28T11:32:18.525Z,2.30
2022-10-28T11:35:24.730Z,2.50
2022-10-28T11:39:02.782Z,2.30
2022-10-28T11:42:20.742Z,2.63
2022-10-28T11:45:27.058Z,2.00
2022-10-28T11:48:26.473Z,2.38
2022-10-28T11:51:26.991Z,2.60
2022-10-28T11:54:38.393Z,1.90
2022-10-28T11:58:03.391Z,2.20
2022-10-28T12:01:22.341Z,2.35
2022-10-28T12:04:35.870Z,2.13
2022-10-28T12:07:39.952Z,2.10
2022-10-28T12:13:51.218Z,2.30
2022-10-28T12:17:12.858Z,2.50
2022-10-28T12:20:33.098Z,2.10
2022-10-28T12:23:26.902Z,2.03
2022-10-28T12:26:17.447Z,2.78
2022-10-28T12:29:27.536Z,2.25
2022-10-28T12:32:29.034Z,2.00
2022-10-28T12:35:23.251Z,2.50
2022-10-28T12:38:36.508Z,2.63
2022-10-28T12:41:33.079Z,2.65
2022-10-28T12:44:24.609Z,1.98
2022-10-28T12:47:37.824Z,2.28
2022-10-28T12:50:39.299Z,2.35
2022-10-28T12:53:53.937Z,2.20
2022-10-28T12:57:00.219Z,2.08
2022-10-28T12:59:54.846Z,2.38
2022-10-28T13:02:49.709Z,2.45
2022-10-28T13:05:51.038Z,2.58
2022-10-28T13:09:14.382Z,1.92
2022-10-28T13:12:35.197Z,2.40
2022-10-28T13:15:49.082Z,2.28
2022-10-28T13:18:56.282Z,2.20
2022-10-28T13:22:21.894Z,2.30
2022-10-28T13:25:31.285Z,2.30
2022-10-28T13:28:19.412Z,2.88
2022-10-28T13:31:07.724Z,2.88
2022-10-28T13:34:00.638Z,2.50
2022-10-28T13:36:58.417Z,2.60
2022-10-28T13:39:44.929Z,2.60
2022-10-28T13:42:44.364Z,2.75
2022-10-28T13:45:52.261Z,2.53
2022-10-28T13:48:45.304Z,2.40
2022-10-28T13:51:31.188Z,2.15
2022-10-28T13:54:33.121Z,2.55
2022-10-28T13:57:33.212Z,2.40
2022-10-28T14:00:18.537Z,2.47
2022-10-28T14:03:27.001Z,1.98
2022-10-28T14:06:33.271Z,2.45
2022-10-28T14:09:26.741Z,2.22
2022-10-28T14:12:25.862Z,2.47
2022-10-28T14:15:18.943Z,3.30
2022-10-28T14:18:42.488Z,2.15
2022-10-28T14:21:48.328Z,2.65
2022-10-28T14:24:39.610Z,2.50
2022-10-28T14:27:41.467Z,2.42
2022-10-28T14:30:26.866Z,3.08
2022-10-28T14:33:20.152Z,2.55
2022-10-28T14:36:46.228Z,2.53
2022-10-28T14:39:51.669Z,2.40
2022-10-28T14:42:58.705Z,2.47
2022-10-28T14:45:52.989Z,3.22
2022-10-28T14:48:53.481Z,2.42
2022-10-28T14:51:43.997Z,2.20
2022-10-28T14:54:48.158Z,2.92
2022-10-28T14:57:34.968Z,2.45
2022-10-28T15:00:23.675Z,2.88
2022-10-28T15:03:11.998Z,2.50
2022-10-28T15:06:02.512Z,2.50
2022-10-28T15:08:47.984Z,2.67
2022-10-28T15:11:34.279Z,3.10
2022-10-28T15:14:39.214Z,2.60
2022-10-28T15:17:27.855Z,2.10
2022-10-28T15:20:23.035Z,2.80
2022-10-28T15:23:20.777Z,2.90
2022-10-28T15:26:16.891Z,2.90
2022-10-28T15:29:02.525Z,2.67
2022-10-28T15:32:09.533Z,2.75
2022-10-28T15:34:55.083Z,2.60
2022-10-28T15:37:40.497Z,2.75
2022-10-28T15:40:30.551Z,3.20
2022-10-28T15:43:23.680Z,2.50
2022-10-28T15:46:16.752Z,2.10
2022-10-28T15:49:02.961Z,2.38
2022-10-28T15:52:17.402Z,2.75
2022-10-28T15:55:18.913Z,2.40
2022-10-28T15:58:13.757Z,2.75
2022-10-28T16:01:02.190Z,2.50
2022-10-28T16:03:47.635Z,2.80
2022-10-28T16:06:36.727Z,2.20
2022-10-28T16:09:36.419Z,2.53
2022-10-28T16:12:26.579Z,2.65
2022-10-28T16:15:16.673Z,2.72
2022-10-28T16:18:02.003Z,2.58
2022-10-28T16:20:47.617Z,2.63
2022-10-28T16:23:38.232Z,4.07
2022-10-28T16:26:23.963Z,3.75
2022-10-28T16:29:09.543Z,3.30
2022-10-28T16:31:55.327Z,3.22
2022-10-28T16:34:41.408Z,3.30
2022-10-28T16:37:29.399Z,3.03
2022-10-28T16:40:37.777Z,3.50
2022-10-28T16:43:24.515Z,2.75
2022-10-28T16:46:12.335Z,3.40
2022-10-28T16:48:58.018Z,3.40
2022-10-28T16:51:44.668Z,2.85
2022-10-28T16:54:29.966Z,3.40
2022-10-28T16:57:16.874Z,3.70
2022-10-28T17:00:02.550Z,4.00
2022-10-28T17:02:50.886Z,3.00
2022-10-28T17:05:36.561Z,3.60
2022-10-28T17:08:42.207Z,2.78
2022-10-28T17:11:27.370Z,4.38
2022-10-28T17:14:12.636Z,3.33
2022-10-28T17:16:58.204Z,4.35
2022-10-28T17:19:45.719Z,3.03
2022-10-28T17:22:31.045Z,3.50
2022-10-28T17:25:16.530Z,3.70
2022-10-28T17:28:02.049Z,3.50
2022-10-28T17:30:47.212Z,3.63
2022-10-28T17:33:33.675Z,3.90
2022-10-28T17:36:19.327Z,5.25
2022-10-28T17:39:05.246Z,5.35
2022-10-28T17:41:50.787Z,5.18
2022-10-28T17:44:36.808Z,5.28
2022-10-28T17:47:22.114Z,4.90
2022-10-28T17:50:08.171Z,5.53
2022-10-28T17:52:53.913Z,4.82
2022-10-28T17:55:41.796Z,4.53
2022-10-28T17:58:28.181Z,5.88
2022-10-28T18:01:13.548Z,4.70
2022-10-28T18:03:59.165Z,4.32
2022-10-28T18:06:45.784Z,5.18
2022-10-28T18:09:32.349Z,4.43
2022-10-28T18:12:17.867Z,4.63
2022-10-28T18:15:05.543Z,5.85
2022-10-28T18:17:51.447Z,5.35
2022-10-28T18:20:37.637Z,4.60
2022-10-28T18:23:23.978Z,4.50
2022-10-28T18:26:11.198Z,3.90
2022-10-28T18:28:57.097Z,4.55
2022-10-28T18:31:44.470Z,4.53
2022-10-28T18:34:30.445Z,4.10
2022-10-28T18:37:15.866Z,4.72
2022-10-28T18:40:01.339Z,4.53
2022-10-28T18:42:46.886Z,4.95
2022-10-28T18:45:32.386Z,4.82
2022-10-28T18:48:18.563Z,4.55
2022-10-28T18:51:06.860Z,4.50
2022-10-28T18:53:52.597Z,4.65
2022-10-28T18:56:37.881Z,4.65
2022-10-28T18:59:26.193Z,4.32
2022-10-28T19:02:12.092Z,4.32
2022-10-28T19:04:58.154Z,3.88
2022-10-28T19:07:43.520Z,4.35
2022-10-28T19:10:28.955Z,4.03
2022-10-28T19:13:14.360Z,4.22
2022-10-28T19:16:02.426Z,4.35
2022-10-28T19:18:49.238Z,4.90
2022-10-28T19:21:35.007Z,4.85
2022-10-28T19:24:22.693Z,4.70
2022-10-28T19:27:07.880Z,4.70
2022-10-28T19:29:53.906Z,5.15
2022-10-28T19:32:39.384Z,5.03
2022-10-28T19:35:24.650Z,4.82
2022-10-28T19:38:10.115Z,4.78
2022-10-28T19:40:55.708Z,4.78
2022-10-28T19:43:41.676Z,4.55
2022-10-28T19:46:29.145Z,4.43
2022-10-28T19:49:14.504Z,4.70
2022-10-28T19:52:00.158Z,5.65
2022-10-28T19:54:45.554Z,4.63
2022-10-28T19:57:31.186Z,5.15
2022-10-28T20:00:16.792Z,5.03
2022-10-28T20:03:02.135Z,4.88
2022-10-28T20:05:47.620Z,4.63
2022-10-28T20:08:35.472Z,4.60
2022-10-28T20:11:26.639Z,4.95
2022-10-28T20:14:13.136Z,5.07
2022-10-28T20:17:06.276Z,5.10
2022-10-28T20:19:51.972Z,4.53
2022-10-28T20:22:42.083Z,4.97
2022-10-28T20:25:27.559Z,4.68
2022-10-28T20:28:13.200Z,5.25
2022-10-28T20:31:08.458Z,4.50
2022-10-28T20:33:59.706Z,4.63
2022-10-28T20:36:45.183Z,5.15
2022-10-28T20:39:30.631Z,6.45
2022-10-28T20:42:16.131Z,4.28
2022-10-28T20:45:01.788Z,5.00
2022-10-28T20:47:47.180Z,5.60
2022-10-28T20:50:32.727Z,5.13
2022-10-28T20:53:18.545Z,4.38
2022-10-28T20:56:04.331Z,4.50
2022-10-28T20:58:49.950Z,4.80
2022-10-28T21:01:38.385Z,5.03
2022-10-28T21:04:24.172Z,5.82
2022-10-28T21:07:09.471Z,5.93
2022-10-28T21:09:55.131Z,5.22
2022-10-28T21:12:40.692Z,5.80
2022-10-28T21:15:26.904Z,5.90
2022-10-28T21:18:13.190Z,5.20
2022-10-28T21:20:59.598Z,5.72
2022-10-28T21:23:45.003Z,4.75
2022-10-28T21:26:30.428Z,5.35
2022-10-28T21:29:15.887Z,4.40
2022-10-28T21:32:01.624Z,4.72
2022-10-28T21:34:47.165Z,4.40
2022-10-28T21:37:33.529Z,5.18
2022-10-28T21:40:19.093Z,4.47
2022-10-28T21:43:04.632Z,4.50
2022-10-28T21:45:52.192Z,4.32
2022-10-28T21:48:37.892Z,4.57
2022-10-28T21:51:23.605Z,5.15
2022-10-28T21:54:09.117Z,4.72
2022-10-28T21:56:54.558Z,5.00
2022-10-28T21:59:39.933Z,4.20
2022-10-28T22:02:25.604Z,4.78
2022-10-28T22:05:11.199Z,4.90
2022-10-28T22:07:56.987Z,4.53
2022-10-28T22:10:42.326Z,4.70
2022-10-28T22:13:28.594Z,4.93
2022-10-28T22:16:18.017Z,4.50
2022-10-28T22:19:06.721Z,4.72
2022-10-28T22:21:52.045Z,4.20
2022-10-28T22:24:37.384Z,4.78
2022-10-28T22:27:22.833Z,5.75
2022-10-28T22:30:09.088Z,5.10
2022-10-28T22:32:54.886Z,5.00
2022-10-28T22:35:40.695Z,4.95
2022-10-28T22:38:26.567Z,4.20
2022-10-28T22:41:20.765Z,4.75
2022-10-28T22:44:07.185Z,4.30
2022-10-28T22:46:52.695Z,4.65
2022-10-28T22:49:38.273Z,4.65
2022-10-28T22:52:23.693Z,4.88
2022-10-28T22:55:09.780Z,5.10
2022-10-28T22:57:55.741Z,4.88
2022-10-28T23:00:41.461Z,4.40
2022-10-28T23:03:27.194Z,4.57
2022-10-28T23:06:14.911Z,4.30
2022-10-28T23:09:00.656Z,4.93
2022-10-28T23:11:46.069Z,4.78
2022-10-28T23:14:31.265Z,5.00
2022-10-28T23:17:16.827Z,4.70
2022-10-28T23:20:02.443Z,4.35
2022-10-28T23:22:47.898Z,4.57
2022-10-28T23:25:33.254Z,4.65
2022-10-28T23:28:18.879Z,5.00
2022-10-28T23:31:05.511Z,5.07
2022-10-28T23:33:52.457Z,6.20
2022-10-28T23:36:38.175Z,4.72
2022-10-28T23:39:23.738Z,4.35
2022-10-28T23:42:09.058Z,4.50
2022-10-28T23:44:54.706Z,4.13
2022-10-28T23:47:40.314Z,4.22
2022-10-28T23:50:25.880Z,4.03
2022-10-28T23:53:11.455Z,3.97
2022-10-28T23:55:57.300Z,4.13
2022-10-28T23:58:42.771Z,4.03
